sensor_id;sensor_type;location;lat;lon;timestamp;pressure;altitude;pressure_sealevel;temperature;humidity
75553;BME280;64136;53.118;17.996;2022-11-21T00:00:44;100436.70;;;-3.94;82.12
75553;BME280;64136;53.118;17.996;2022-11-21T00:03:11;100436.08;;;-4.00;82.19
75553;BME280;64136;53.118;17.996;2022-11-21T00:05:39;100432.91;;;-3.95;82.08
75553;BME280;64136;53.118;17.996;2022-11-21T00:08:06;100432.34;;;-3.91;82.11
75553;BME280;64136;53.118;17.996;2022-11-21T00:10:33;100435.48;;;-3.93;82.00
75553;BME280;64136;53.118;17.996;2022-11-21T00:13:00;100442.42;;;-3.95;81.92
75553;BME280;64136;53.118;17.996;2022-11-21T00:15:26;100444.16;;;-3.97;82.09
75553;BME280;64136;53.118;17.996;2022-11-21T00:17:52;100443.52;;;-4.01;82.20
75553;BME280;64136;53.118;17.996;2022-11-21T00:20:20;100439.06;;;-4.09;82.23
75553;BME280;64136;53.118;17.996;2022-11-21T00:22:47;100430.66;;;-4.17;81.85
75553;BME280;64136;53.118;17.996;2022-11-21T00:25:14;100432.81;;;-4.27;81.72
75553;BME280;64136;53.118;17.996;2022-11-21T00:27:40;100436.52;;;-4.38;81.56
75553;BME280;64136;53.118;17.996;2022-11-21T00:30:09;100434.88;;;-4.54;81.41
75553;BME280;64136;53.118;17.996;2022-11-21T00:32:35;100438.59;;;-4.67;81.46
75553;BME280;64136;53.118;17.996;2022-11-21T00:35:01;100441.40;;;-4.78;81.51
75553;BME280;64136;53.118;17.996;2022-11-21T00:37:28;100441.13;;;-4.88;81.79
75553;BME280;64136;53.118;17.996;2022-11-21T00:39:54;100446.52;;;-4.95;81.92
75553;BME280;64136;53.118;17.996;2022-11-21T00:42:20;100444.10;;;-5.02;81.89
75553;BME280;64136;53.118;17.996;2022-11-21T00:44:46;100439.83;;;-5.09;82.17
75553;BME280;64136;53.118;17.996;2022-11-21T00:47:12;100437.95;;;-5.14;82.32
75553;BME280;64136;53.118;17.996;2022-11-21T00:49:38;100435.55;;;-5.19;82.20
75553;BME280;64136;53.118;17.996;2022-11-21T00:52:04;100435.21;;;-5.27;82.45
75553;BME280;64136;53.118;17.996;2022-11-21T00:54:29;100437.65;;;-5.32;82.23
75553;BME280;64136;53.118;17.996;2022-11-21T00:56:55;100436.30;;;-5.38;82.53
75553;BME280;64136;53.118;17.996;2022-11-21T00:59:21;100437.51;;;-5.45;82.49
75553;BME280;64136;53.118;17.996;2022-11-21T01:01:48;100436.48;;;-5.44;82.34
75553;BME280;64136;53.118;17.996;2022-11-21T01:04:14;100431.29;;;-5.35;82.35
75553;BME280;64136;53.118;17.996;2022-11-21T01:06:40;100428.01;;;-5.36;82.06
75553;BME280;64136;53.118;17.996;2022-11-21T01:09:06;100426.98;;;-5.39;81.87
75553;BME280;64136;53.118;17.996;2022-11-21T01:11:32;100422.66;;;-5.37;82.43
75553;BME280;64136;53.118;17.996;2022-11-21T01:13:58;100432.85;;;-5.37;82.16
75553;BME280;64136;53.118;17.996;2022-11-21T01:16:26;100438.02;;;-5.35;82.13
75553;BME280;64136;53.118;17.996;2022-11-21T01:18:53;100434.71;;;-5.30;82.23
75553;BME280;64136;53.118;17.996;2022-11-21T01:21:23;100431.25;;;-5.28;82.23
75553;BME280;64136;53.118;17.996;2022-11-21T01:23:50;100428.84;;;-5.30;82.16
75553;BME280;64136;53.118;17.996;2022-11-21T01:26:18;100425.41;;;-5.34;82.58
75553;BME280;64136;53.118;17.996;2022-11-21T01:28:45;100430.44;;;-5.39;82.41
75553;BME280;64136;53.118;17.996;2022-11-21T01:31:17;100442.17;;;-5.44;82.22
75553;BME280;64136;53.118;17.996;2022-11-21T01:33:44;100448.39;;;-5.48;82.29
75553;BME280;64136;53.118;17.996;2022-11-21T01:36:13;100448.91;;;-5.43;82.27
75553;BME280;64136;53.118;17.996;2022-11-21T01:38:41;100451.15;;;-5.41;82.10
75553;BME280;64136;53.118;17.996;2022-11-21T01:41:08;100454.77;;;-5.42;82.01
75553;BME280;64136;53.118;17.996;2022-11-21T01:43:34;100455.80;;;-5.45;82.39
75553;BME280;64136;53.118;17.996;2022-11-21T01:53:56;100461.02;;;-5.64;82.46
75553;BME280;64136;53.118;17.996;2022-11-21T01:56:24;100467.23;;;-5.66;82.25
75553;BME280;64136;53.118;17.996;2022-11-21T01:58:53;100460.48;;;-5.55;82.20
75553;BME280;64136;53.118;17.996;2022-11-21T02:01:21;100462.04;;;-5.56;82.02
75553;BME280;64136;53.118;17.996;2022-11-21T02:03:47;100462.91;;;-5.56;82.29
75553;BME280;64136;53.118;17.996;2022-11-21T02:06:13;100464.81;;;-5.62;82.33
75553;BME280;64136;53.118;17.996;2022-11-21T02:08:41;100469.98;;;-5.67;82.34
75553;BME280;64136;53.118;17.996;2022-11-21T02:11:23;100468.60;;;-5.69;82.64
75553;BME280;64136;53.118;17.996;2022-11-21T02:13:52;100461.89;;;-5.66;82.53
75553;BME280;64136;53.118;17.996;2022-11-21T02:16:18;100464.45;;;-5.56;82.48
75553;BME280;64136;53.118;17.996;2022-11-21T02:18:44;100462.73;;;-5.55;82.82
75553;BME280;64136;53.118;17.996;2022-11-21T02:22:01;100459.80;;;-5.55;82.83
75553;BME280;64136;53.118;17.996;2022-11-21T02:26:29;100452.05;;;-5.59;83.03
75553;BME280;64136;53.118;17.996;2022-11-21T02:28:56;100450.13;;;-5.55;82.89
75553;BME280;64136;53.118;17.996;2022-11-21T02:31:22;100452.35;;;-5.44;82.93
75553;BME280;64136;53.118;17.996;2022-11-21T02:33:48;100453.39;;;-5.43;82.94
75553;BME280;64136;53.118;17.996;2022-11-21T02:36:47;100449.95;;;-5.49;83.06
75553;BME280;64136;53.118;17.996;2022-11-21T02:39:18;100446.17;;;-5.56;82.60
75553;BME280;64136;53.118;17.996;2022-11-21T02:41:55;100449.63;;;-5.60;83.14
75553;BME280;64136;53.118;17.996;2022-11-21T02:44:27;100448.42;;;-5.60;83.18
75553;BME280;64136;53.118;17.996;2022-11-21T02:46:54;100450.81;;;-5.51;82.64
75553;BME280;64136;53.118;17.996;2022-11-21T02:49:37;100447.53;;;-5.52;82.94
75553;BME280;64136;53.118;17.996;2022-11-21T02:52:05;100448.58;;;-5.56;82.79
75553;BME280;64136;53.118;17.996;2022-11-21T02:54:31;100445.66;;;-5.60;82.65
75553;BME280;64136;53.118;17.996;2022-11-21T02:56:57;100445.67;;;-5.64;82.84
75553;BME280;64136;53.118;17.996;2022-11-21T02:59:23;100443.25;;;-5.70;83.01
75553;BME280;64136;53.118;17.996;2022-11-21T03:01:49;100443.95;;;-5.65;82.77
75553;BME280;64136;53.118;17.996;2022-11-21T03:04:15;100435.84;;;-5.62;82.85
75553;BME280;64136;53.118;17.996;2022-11-21T03:06:41;100434.12;;;-5.63;82.81
75553;BME280;64136;53.118;17.996;2022-11-21T03:09:07;100434.80;;;-5.65;82.76
75553;BME280;64136;53.118;17.996;2022-11-21T03:11:33;100435.14;;;-5.69;82.99
75553;BME280;64136;53.118;17.996;2022-11-21T03:13:59;100433.77;;;-5.71;82.85
75553;BME280;64136;53.118;17.996;2022-11-21T03:16:25;100436.02;;;-5.74;83.24
75553;BME280;64136;53.118;17.996;2022-11-21T03:18:51;100441.53;;;-5.72;83.00
75553;BME280;64136;53.118;17.996;2022-11-21T03:21:17;100438.59;;;-5.58;82.95
75553;BME280;64136;53.118;17.996;2022-11-21T03:23:44;100430.30;;;-5.58;82.67
75553;BME280;64136;53.118;17.996;2022-11-21T03:26:10;100429.42;;;-5.56;82.87
75553;BME280;64136;53.118;17.996;2022-11-21T03:28:36;100433.07;;;-5.58;82.81
75553;BME280;64136;53.118;17.996;2022-11-21T03:31:02;100432.38;;;-5.59;82.90
75553;BME280;64136;53.118;17.996;2022-11-21T03:33:28;100431.86;;;-5.59;83.02
75553;BME280;64136;53.118;17.996;2022-11-21T03:35:53;100420.14;;;-5.61;82.92
75553;BME280;64136;53.118;17.996;2022-11-21T03:38:20;100426.01;;;-5.63;82.86
75553;BME280;64136;53.118;17.996;2022-11-21T03:40:46;100418.05;;;-5.56;82.48
75553;BME280;64136;53.118;17.996;2022-11-21T03:43:12;100416.29;;;-5.47;82.55
75553;BME280;64136;53.118;17.996;2022-11-21T03:45:38;100420.77;;;-5.46;82.56
75553;BME280;64136;53.118;17.996;2022-11-21T03:48:04;100420.08;;;-5.44;82.56
75553;BME280;64136;53.118;17.996;2022-11-21T03:50:31;100420.43;;;-5.48;82.55
75553;BME280;64136;53.118;17.996;2022-11-21T03:52:56;100425.95;;;-5.48;82.76
75553;BME280;64136;53.118;17.996;2022-11-21T03:55:22;100425.95;;;-5.47;82.84
75553;BME280;64136;53.118;17.996;2022-11-21T03:57:49;100426.30;;;-5.47;82.76
75553;BME280;64136;53.118;17.996;2022-11-21T04:00:15;100429.06;;;-5.47;82.82
75553;BME280;64136;53.118;17.996;2022-11-21T04:02:41;100430.95;;;-5.47;82.64
75553;BME280;64136;53.118;17.996;2022-11-21T04:05:08;100423.89;;;-5.48;82.50
75553;BME280;64136;53.118;17.996;2022-11-21T04:07:34;100418.52;;;-5.36;82.53
75553;BME280;64136;53.118;17.996;2022-11-21T04:10:00;100418.67;;;-5.33;82.30
75553;BME280;64136;53.118;17.996;2022-11-21T04:12:26;100415.55;;;-5.31;82.35
75553;BME280;64136;53.118;17.996;2022-11-21T04:14:52;100411.59;;;-5.31;82.33
75553;BME280;64136;53.118;17.996;2022-11-21T04:17:18;100416.78;;;-5.35;82.50
75553;BME280;64136;53.118;17.996;2022-11-21T04:19:43;100417.33;;;-5.39;82.04
75553;BME280;64136;53.118;17.996;2022-11-21T04:22:10;100415.08;;;-5.42;82.54
75553;BME280;64136;53.118;17.996;2022-11-21T04:24:36;100411.98;;;-5.45;82.32
75553;BME280;64136;53.118;17.996;2022-11-21T04:27:02;100405.95;;;-5.50;82.65
75553;BME280;64136;53.118;17.996;2022-11-21T04:29:28;100407.52;;;-5.56;82.38
75553;BME280;64136;53.118;17.996;2022-11-21T04:31:54;100412.17;;;-5.54;82.82
75553;BME280;64136;53.118;17.996;2022-11-21T04:34:20;100411.97;;;-5.47;82.30
75553;BME280;64136;53.118;17.996;2022-11-21T04:36:46;100410.77;;;-5.47;82.49
75553;BME280;64136;53.118;17.996;2022-11-21T04:39:12;100405.41;;;-5.45;82.47
75553;BME280;64136;53.118;17.996;2022-11-21T04:41:38;100407.83;;;-5.42;82.52
75553;BME280;64136;53.118;17.996;2022-11-21T04:44:04;100399.02;;;-5.38;82.51
75553;BME280;64136;53.118;17.996;2022-11-21T04:46:30;100392.27;;;-5.33;82.42
75553;BME280;64136;53.118;17.996;2022-11-21T04:48:56;100395.72;;;-5.33;82.31
75553;BME280;64136;53.118;17.996;2022-11-21T04:51:22;100398.14;;;-5.34;82.33
75553;BME280;64136;53.118;17.996;2022-11-21T04:53:48;100404.52;;;-5.34;82.59
75553;BME280;64136;53.118;17.996;2022-11-21T04:56:14;100406.94;;;-5.34;82.41
75553;BME280;64136;53.118;17.996;2022-11-21T04:58:42;100404.35;;;-5.34;82.71
75553;BME280;64136;53.118;17.996;2022-11-21T05:01:09;100405.91;;;-5.34;82.74
75553;BME280;64136;53.118;17.996;2022-11-21T05:03:35;100406.95;;;-5.34;82.81
75553;BME280;64136;53.118;17.996;2022-11-21T05:06:02;100408.15;;;-5.33;82.82
75553;BME280;64136;53.118;17.996;2022-11-21T05:08:28;100405.17;;;-5.20;82.57
75553;BME280;64136;53.118;17.996;2022-11-21T05:10:54;100399.63;;;-5.16;82.41
75553;BME280;64136;53.118;17.996;2022-11-21T05:13:39;100390.65;;;-5.15;82.49
75553;BME280;64136;53.118;17.996;2022-11-21T05:16:05;100391.49;;;-5.11;82.47
75553;BME280;64136;53.118;17.996;2022-11-21T05:18:31;100385.98;;;-5.13;82.23
75553;BME280;64136;53.118;17.996;2022-11-21T05:20:59;100381.84;;;-5.13;82.76
75553;BME280;64136;53.118;17.996;2022-11-21T05:23:25;100379.94;;;-5.13;82.68
75553;BME280;64136;53.118;17.996;2022-11-21T05:25:51;100380.27;;;-5.12;82.79
75553;BME280;64136;53.118;17.996;2022-11-21T05:28:17;100375.09;;;-5.10;82.91
75553;BME280;64136;53.118;17.996;2022-11-21T05:30:43;100374.55;;;-5.08;82.90
75553;BME280;64136;53.118;17.996;2022-11-21T05:33:09;100372.30;;;-5.07;82.99
75553;BME280;64136;53.118;17.996;2022-11-21T05:35:35;100372.80;;;-5.05;83.11
75553;BME280;64136;53.118;17.996;2022-11-21T05:38:03;100371.41;;;-5.03;83.23
75553;BME280;64136;53.118;17.996;2022-11-21T05:40:29;100371.41;;;-5.02;82.97
75553;BME280;64136;53.118;17.996;2022-11-21T05:42:55;100370.70;;;-5.01;82.93
75553;BME280;64136;53.118;17.996;2022-11-21T05:45:39;100365.00;;;-5.01;82.85
75553;BME280;64136;53.118;17.996;2022-11-21T05:48:05;100366.56;;;-5.00;83.21
75553;BME280;64136;53.118;17.996;2022-11-21T05:50:35;100369.14;;;-4.98;82.87
75553;BME280;64136;53.118;17.996;2022-11-21T05:53:02;100369.14;;;-4.95;83.15
75553;BME280;64136;53.118;17.996;2022-11-21T05:55:30;100365.58;;;-4.79;82.67
75553;BME280;64136;53.118;17.996;2022-11-21T05:57:57;100371.08;;;-4.72;82.60
75553;BME280;64136;53.118;17.996;2022-11-21T06:00:24;100370.34;;;-4.66;82.64
75553;BME280;64136;53.118;17.996;2022-11-21T06:02:50;100366.29;;;-4.57;82.71
75553;BME280;64136;53.118;17.996;2022-11-21T06:05:35;100358.64;;;-4.48;82.46
75553;BME280;64136;53.118;17.996;2022-11-21T06:08:01;100361.16;;;-4.40;82.43
75553;BME280;64136;53.118;17.996;2022-11-21T06:10:27;100360.75;;;-4.33;82.31
75553;BME280;64136;53.118;17.996;2022-11-21T06:12:53;100362.45;;;-4.27;82.30
75553;BME280;64136;53.118;17.996;2022-11-21T06:15:19;100357.05;;;-4.23;82.25
75553;BME280;64136;53.118;17.996;2022-11-21T06:17:45;100356.33;;;-4.18;82.20
75553;BME280;64136;53.118;17.996;2022-11-21T06:20:11;100355.29;;;-4.19;82.24
75553;BME280;64136;53.118;17.996;2022-11-21T06:22:37;100350.61;;;-4.18;82.24
75553;BME280;64136;53.118;17.996;2022-11-21T06:25:04;100351.13;;;-4.18;82.41
75553;BME280;64136;53.118;17.996;2022-11-21T06:27:30;100353.21;;;-4.19;82.36
75553;BME280;64136;53.118;17.996;2022-11-21T06:29:56;100352.36;;;-4.20;82.37
75553;BME280;64136;53.118;17.996;2022-11-21T06:32:22;100358.58;;;-4.19;82.39
75553;BME280;64136;53.118;17.996;2022-11-21T06:34:48;100356.84;;;-4.20;82.48
75553;BME280;64136;53.118;17.996;2022-11-21T06:37:14;100364.09;;;-4.18;82.59
75553;BME280;64136;53.118;17.996;2022-11-21T06:39:40;100367.02;;;-4.16;82.66
75553;BME280;64136;53.118;17.996;2022-11-21T06:42:06;100362.84;;;-4.14;82.82
75553;BME280;64136;53.118;17.996;2022-11-21T06:44:32;100366.61;;;-4.10;82.62
75553;BME280;64136;53.118;17.996;2022-11-21T06:46:58;100368.69;;;-4.09;82.84
75553;BME280;64136;53.118;17.996;2022-11-21T06:49:24;100374.73;;;-4.10;82.39
75553;BME280;64136;53.118;17.996;2022-11-21T06:51:50;100373.90;;;-4.13;82.47
75553;BME280;64136;53.118;17.996;2022-11-21T06:54:16;100372.64;;;-4.07;82.20
75553;BME280;64136;53.118;17.996;2022-11-21T06:56:42;100368.02;;;-3.93;82.06
75553;BME280;64136;53.118;17.996;2022-11-21T06:59:08;100366.59;;;-3.89;82.09
75553;BME280;64136;53.118;17.996;2022-11-21T07:01:34;100366.38;;;-3.84;81.96
75553;BME280;64136;53.118;17.996;2022-11-21T07:04:00;100366.47;;;-3.76;81.89
75553;BME280;64136;53.118;17.996;2022-11-21T07:06:26;100364.41;;;-3.62;81.89
75553;BME280;64136;53.118;17.996;2022-11-21T07:08:53;100368.98;;;-3.52;81.79
75553;BME280;64136;53.118;17.996;2022-11-21T07:11:19;100376.41;;;-3.50;81.83
75553;BME280;64136;53.118;17.996;2022-11-21T07:13:45;100374.16;;;-3.51;81.67
75553;BME280;64136;53.118;17.996;2022-11-21T07:16:11;100374.83;;;-3.50;81.84
75553;BME280;64136;53.118;17.996;2022-11-21T07:18:41;100371.70;;;-3.48;81.84
75553;BME280;64136;53.118;17.996;2022-11-21T07:21:08;100370.09;;;-3.44;81.76
75553;BME280;64136;53.118;17.996;2022-11-21T07:23:35;100362.41;;;-3.39;81.81
75553;BME280;64136;53.118;17.996;2022-11-21T07:26:03;100364.80;;;-3.34;81.97
75553;BME280;64136;53.118;17.996;2022-11-21T07:28:29;100366.55;;;-3.34;81.80
75553;BME280;64136;53.118;17.996;2022-11-21T07:30:56;100364.48;;;-3.36;81.84
75553;BME280;64136;53.118;17.996;2022-11-21T07:33:23;100366.91;;;-3.37;81.81
75553;BME280;64136;53.118;17.996;2022-11-21T07:35:49;100362.98;;;-3.29;81.62
75553;BME280;64136;53.118;17.996;2022-11-21T07:38:15;100359.79;;;-3.22;81.41
75553;BME280;64136;53.118;17.996;2022-11-21T07:40:41;100354.41;;;-3.22;81.40
75553;BME280;64136;53.118;17.996;2022-11-21T07:43:09;100356.13;;;-3.21;81.29
75553;BME280;64136;53.118;17.996;2022-11-21T07:45:36;100356.44;;;-3.16;81.40
75553;BME280;64136;53.118;17.996;2022-11-21T07:48:04;100357.58;;;-3.10;81.50
75553;BME280;64136;53.118;17.996;2022-11-21T07:50:31;100354.55;;;-3.05;81.60
75553;BME280;64136;53.118;17.996;2022-11-21T07:52:59;100354.83;;;-3.00;81.62
75553;BME280;64136;53.118;17.996;2022-11-21T07:55:26;100357.52;;;-2.96;81.58
75553;BME280;64136;53.118;17.996;2022-11-21T07:58:00;100355.45;;;-2.94;81.64
75553;BME280;64136;53.118;17.996;2022-11-21T08:00:28;100351.96;;;-2.92;81.60
75553;BME280;64136;53.118;17.996;2022-11-21T08:02:55;100352.80;;;-2.90;81.66
75553;BME280;64136;53.118;17.996;2022-11-21T08:05:21;100352.89;;;-2.84;81.83
75553;BME280;64136;53.118;17.996;2022-11-21T08:07:47;100353.63;;;-2.77;81.77
75553;BME280;64136;53.118;17.996;2022-11-21T08:10:15;100357.36;;;-2.69;81.82
75553;BME280;64136;53.118;17.996;2022-11-21T08:12:42;100358.05;;;-2.59;81.72
75553;BME280;64136;53.118;17.996;2022-11-21T08:15:09;100364.66;;;-2.49;81.63
75553;BME280;64136;53.118;17.996;2022-11-21T08:17:35;100367.51;;;-2.42;81.41
75553;BME280;64136;53.118;17.996;2022-11-21T08:20:02;100370.59;;;-2.29;81.15
75553;BME280;64136;53.118;17.996;2022-11-21T08:22:29;100370.11;;;-2.10;81.17
75553;BME280;64136;53.118;17.996;2022-11-21T08:24:55;100371.48;;;-1.98;80.98
75553;BME280;64136;53.118;17.996;2022-11-21T08:27:21;100372.64;;;-1.86;80.58
75553;BME280;64136;53.118;17.996;2022-11-21T08:29:49;100369.16;;;-1.75;80.63
75553;BME280;64136;53.118;17.996;2022-11-21T08:32:15;100368.58;;;-1.63;80.64
75553;BME280;64136;53.118;17.996;2022-11-21T08:34:41;100370.53;;;-1.56;80.58
75553;BME280;64136;53.118;17.996;2022-11-21T08:37:07;100365.71;;;-1.48;80.57
75553;BME280;64136;53.118;17.996;2022-11-21T08:39:33;100362.62;;;-1.42;80.63
75553;BME280;64136;53.118;17.996;2022-11-21T08:41:59;100363.16;;;-1.34;80.74
75553;BME280;64136;53.118;17.996;2022-11-21T08:44:32;100365.53;;;-1.23;80.68
75553;BME280;64136;53.118;17.996;2022-11-21T08:47:00;100366.39;;;-1.14;80.39
75553;BME280;64136;53.118;17.996;2022-11-21T08:49:27;100359.04;;;-1.11;80.13
75553;BME280;64136;53.118;17.996;2022-11-21T08:51:53;100353.95;;;-1.09;80.27
75553;BME280;64136;53.118;17.996;2022-11-21T08:54:21;100348.02;;;-1.07;79.92
75553;BME280;64136;53.118;17.996;2022-11-21T08:56:48;100346.55;;;-0.97;79.72
75553;BME280;64136;53.118;17.996;2022-11-21T08:59:15;100343.50;;;-1.00;79.74
75553;BME280;64136;53.118;17.996;2022-11-21T09:01:42;100343.84;;;-1.00;79.87
75553;BME280;64136;53.118;17.996;2022-11-21T09:04:09;100344.05;;;-1.01;79.61
75553;BME280;64136;53.118;17.996;2022-11-21T09:06:36;100342.20;;;-1.05;79.74
75553;BME280;64136;53.118;17.996;2022-11-21T09:09:06;100344.06;;;-1.01;79.74
75553;BME280;64136;53.118;17.996;2022-11-21T09:11:32;100345.39;;;-0.99;79.85
75553;BME280;64136;53.118;17.996;2022-11-21T09:13:58;100345.94;;;-1.00;79.65
75553;BME280;64136;53.118;17.996;2022-11-21T09:16:43;100341.67;;;-1.04;79.77
75553;BME280;64136;53.118;17.996;2022-11-21T09:19:27;100345.54;;;-1.05;79.71
75553;BME280;64136;53.118;17.996;2022-11-21T09:21:53;100345.23;;;-1.07;79.83
75553;BME280;64136;53.118;17.996;2022-11-21T09:24:19;100354.30;;;-1.09;79.64
75553;BME280;64136;53.118;17.996;2022-11-21T09:26:46;100356.23;;;-1.10;79.64
75553;BME280;64136;53.118;17.996;2022-11-21T09:29:12;100353.11;;;-1.10;79.82
75553;BME280;64136;53.118;17.996;2022-11-21T09:31:40;100354.61;;;-1.07;79.67
75553;BME280;64136;53.118;17.996;2022-11-21T09:34:07;100349.77;;;-0.92;79.48
75553;BME280;64136;53.118;17.996;2022-11-21T09:36:34;100351.31;;;-0.83;79.43
75553;BME280;64136;53.118;17.996;2022-11-21T09:39:00;100355.69;;;-0.77;79.40
75553;BME280;64136;53.118;17.996;2022-11-21T09:44:34;100357.17;;;-0.74;79.19
75553;BME280;64136;53.118;17.996;2022-11-21T09:49:40;100356.02;;;-0.76;79.36
75553;BME280;64136;53.118;17.996;2022-11-21T09:52:10;100354.44;;;-0.76;79.30
75553;BME280;64136;53.118;17.996;2022-11-21T09:54:51;100353.92;;;-0.76;79.36
75553;BME280;64136;53.118;17.996;2022-11-21T09:57:20;100352.91;;;-0.77;79.11
75553;BME280;64136;53.118;17.996;2022-11-21T09:59:48;100349.45;;;-0.78;79.22
75553;BME280;64136;53.118;17.996;2022-11-21T10:02:19;100349.98;;;-0.78;79.26
75553;BME280;64136;53.118;17.996;2022-11-21T10:04:48;100343.92;;;-0.72;79.06
75553;BME280;64136;53.118;17.996;2022-11-21T10:07:24;100338.54;;;-0.57;78.84
75553;BME280;64136;53.118;17.996;2022-11-21T10:10:23;100340.02;;;-0.46;78.80
75553;BME280;64136;53.118;17.996;2022-11-21T10:13:05;100337.45;;;-0.41;78.59
75553;BME280;64136;53.118;17.996;2022-11-21T10:28:59;100330.34;;;-0.42;78.51
75553;BME280;64136;53.118;17.996;2022-11-21T10:31:30;100324.63;;;-0.43;78.41
75553;BME280;64136;53.118;17.996;2022-11-21T10:34:02;100317.08;;;-0.40;78.42
75553;BME280;64136;53.118;17.996;2022-11-21T10:36:39;100319.98;;;-0.38;78.38
75553;BME280;64136;53.118;17.996;2022-11-21T10:39:19;100318.96;;;-0.32;78.41
75553;BME280;64136;53.118;17.996;2022-11-21T10:42:04;100313.50;;;-0.15;78.00
75553;BME280;64136;53.118;17.996;2022-11-21T10:44:34;100311.00;;;-0.07;77.79
75553;BME280;64136;53.118;17.996;2022-11-21T10:47:20;100314.55;;;-0.02;77.95
75553;BME280;64136;53.118;17.996;2022-11-21T10:52:47;100310.71;;;-0.02;77.77
75553;BME280;64136;53.118;17.996;2022-11-21T10:55:17;100303.23;;;-0.02;77.87
75553;BME280;64136;53.118;17.996;2022-11-21T10:57:48;100301.20;;;-0.05;77.74
75553;BME280;64136;53.118;17.996;2022-11-21T11:05:22;100288.03;;;-0.13;77.87
75553;BME280;64136;53.118;17.996;2022-11-21T11:08:10;100286.34;;;-0.15;77.89
75553;BME280;64136;53.118;17.996;2022-11-21T11:10:38;100278.20;;;-0.16;77.58
75553;BME280;64136;53.118;17.996;2022-11-21T11:13:12;100280.16;;;-0.18;77.65
75553;BME280;64136;53.118;17.996;2022-11-21T11:16:15;100281.35;;;-0.17;77.80
75553;BME280;64136;53.118;17.996;2022-11-21T11:21:21;100276.80;;;-0.04;77.49
75553;BME280;64136;53.118;17.996;2022-11-21T11:23:49;100271.98;;;0.02;77.36
75553;BME280;64136;53.118;17.996;2022-11-21T11:28:44;100268.16;;;0.14;77.41
75553;BME280;64136;53.118;17.996;2022-11-21T11:31:10;100273.38;;;0.20;77.18
75553;BME280;64136;53.118;17.996;2022-11-21T11:33:54;100279.80;;;0.21;77.22
75553;BME280;64136;53.118;17.996;2022-11-21T11:38:55;100280.28;;;0.22;77.01
75553;BME280;64136;53.118;17.996;2022-11-21T11:47:41;100267.35;;;0.24;77.13
75553;BME280;64136;53.118;17.996;2022-11-21T11:50:16;100266.70;;;0.22;77.03
75553;BME280;64136;53.118;17.996;2022-11-21T11:55:38;100260.91;;;0.17;77.06
75553;BME280;64136;53.118;17.996;2022-11-21T11:58:20;100265.79;;;0.17;77.12
75553;BME280;64136;53.118;17.996;2022-11-21T12:03:38;100257.29;;;0.16;77.11
75553;BME280;64136;53.118;17.996;2022-11-21T12:06:20;100254.96;;;0.18;77.14
75553;BME280;64136;53.118;17.996;2022-11-21T12:08:54;100260.44;;;0.16;76.95
75553;BME280;64136;53.118;17.996;2022-11-21T12:20:19;100256.19;;;0.12;77.04
75553;BME280;64136;53.118;17.996;2022-11-21T12:22:48;100252.76;;;0.16;77.09
75553;BME280;64136;53.118;17.996;2022-11-21T12:25:18;100249.38;;;0.32;76.71
75553;BME280;64136;53.118;17.996;2022-11-21T12:27:51;100245.63;;;0.35;76.68
75553;BME280;64136;53.118;17.996;2022-11-21T12:31:00;100251.67;;;0.37;76.69
75553;BME280;64136;53.118;17.996;2022-11-21T12:33:29;100249.46;;;0.41;76.74
75553;BME280;64136;53.118;17.996;2022-11-21T12:36:10;100248.98;;;0.46;76.47
75553;BME280;64136;53.118;17.996;2022-11-21T12:39:02;100252.23;;;0.48;76.58
75553;BME280;64136;53.118;17.996;2022-11-21T12:41:36;100252.64;;;0.45;76.68
75553;BME280;64136;53.118;17.996;2022-11-21T12:44:59;100254.75;;;0.45;76.51
75553;BME280;64136;53.118;17.996;2022-11-21T12:50:45;100271.93;;;0.35;76.68
75553;BME280;64136;53.118;17.996;2022-11-21T12:53:55;100278.10;;;0.26;76.88
75553;BME280;64136;53.118;17.996;2022-11-21T12:59:29;100288.61;;;0.11;77.18
75553;BME280;64136;53.118;17.996;2022-11-21T13:04:58;100295.71;;;-0.01;77.19
75553;BME280;64136;53.118;17.996;2022-11-21T13:07:27;100290.83;;;-0.07;77.37
75553;BME280;64136;53.118;17.996;2022-11-21T13:09:58;100289.27;;;-0.13;77.43
75553;BME280;64136;53.118;17.996;2022-11-21T13:17:57;100297.30;;;-0.36;77.62
75553;BME280;64136;53.118;17.996;2022-11-21T13:20:37;100306.81;;;-0.40;77.59
75553;BME280;64136;53.118;17.996;2022-11-21T13:23:34;100308.64;;;-0.43;77.71
75553;BME280;64136;53.118;17.996;2022-11-21T13:29:12;100306.08;;;-0.32;77.72
75553;BME280;64136;53.118;17.996;2022-11-21T13:31:39;100297.00;;;-0.31;77.72
75553;BME280;64136;53.118;17.996;2022-11-21T13:36:59;100286.75;;;-0.31;77.69
75553;BME280;64136;53.118;17.996;2022-11-21T13:39:31;100286.52;;;-0.28;77.86
75553;BME280;64136;53.118;17.996;2022-11-21T13:41:58;100285.80;;;-0.28;77.77
75553;BME280;64136;53.118;17.996;2022-11-21T13:44:43;100284.34;;;-0.25;77.92
75553;BME280;64136;53.118;17.996;2022-11-21T14:06:44;100298.29;;;-0.54;78.60
75553;BME280;64136;53.118;17.996;2022-11-21T14:09:24;100298.23;;;-0.59;78.46
75553;BME280;64136;53.118;17.996;2022-11-21T14:11:57;100293.60;;;-0.62;78.75
75553;BME280;64136;53.118;17.996;2022-11-21T14:14:28;100294.38;;;-0.65;78.70
75553;BME280;64136;53.118;17.996;2022-11-21T14:19:42;100299.17;;;-0.69;78.62
75553;BME280;64136;53.118;17.996;2022-11-21T14:22:38;100301.40;;;-0.60;78.30
75553;BME280;64136;53.118;17.996;2022-11-21T14:25:05;100300.90;;;-0.61;78.28
75553;BME280;64136;53.118;17.996;2022-11-21T14:27:36;100299.34;;;-0.62;78.19
75553;BME280;64136;53.118;17.996;2022-11-21T14:30:04;100300.70;;;-0.60;78.41
75553;BME280;64136;53.118;17.996;2022-11-21T14:32:31;100298.83;;;-0.55;78.46
75553;BME280;64136;53.118;17.996;2022-11-21T14:35:17;100301.66;;;-0.50;78.24
75553;BME280;64136;53.118;17.996;2022-11-21T14:37:44;100308.27;;;-0.50;78.37
75553;BME280;64136;53.118;17.996;2022-11-21T14:40:20;100308.35;;;-0.53;78.07